Time;durP1;ratioP1;P1;durP2;ratioP2;P2;SDS_P1;SDS_P2;PMS_P1;PMS_P2;Temp;Humidity;BMP_temperature;BMP_pressure;BME280_temperature;BME280_humidity;BME280_pressure;Samples;Min_cycle;Max_cycle;Signal;HPM_P1;HPM_P2
2023/03/24 00:00:27;;;;;;;21.23;7.30;;;;;;;6.39;83.53;100045.63;10386507;28;20041;-73
2023/03/24 00:05:29;;;;;;;25.38;6.85;;;;;;;6.58;84.15;100089.56;10390578;28;20042;-73
2023/03/24 00:10:33;;;;;;;25.00;6.88;;;;;;;7.07;84.48;100184.28;10371898;28;20533;-73
2023/03/24 00:15:35;;;;;;;21.75;6.45;;;;;;;6.48;84.66;100099.31;10406516;28;20041;-73
2023/03/24 00:20:35;;;;;;;26.88;7.03;;;;;;;6.40;84.28;100108.00;10412726;28;20037;-73
2023/03/24 00:25:38;;;;;;;19.80;6.90;;;;;;;6.88;84.63;100202.88;10412301;28;20539;-73
2023/03/24 00:30:40;;;;;;;19.60;6.70;;;;;;;6.20;85.63;100100.31;10412154;28;20036;-73
2023/03/24 00:35:43;;;;;;;24.30;6.88;;;;;;;6.48;85.36;100169.75;10380902;28;20046;-73
2023/03/24 00:40:49;;;;;;;25.80;6.65;;;;;;;6.15;86.28;100125.31;10379043;28;20045;-74
2023/03/24 00:45:51;;;;;;;21.92;6.78;;;;;;;6.03;85.46;100108.00;10377530;28;20053;-73
2023/03/24 00:50:52;;;;;;;20.23;7.47;;;;;;;6.55;85.41;100220.94;10378781;28;20450;-73
2023/03/24 00:55:52;;;;;;;27.70;7.00;;;;;;;5.92;85.81;100127.44;10378707;28;20065;-73
2023/03/24 01:00:55;;;;;;;19.50;6.90;;;;;;;6.46;86.02;100224.47;10377843;28;20073;-74
2023/03/24 01:06:01;;;;;;;28.60;7.78;;;;;;;5.96;86.85;100150.91;10378510;28;20101;-73
2023/03/24 01:11:03;;;;;;;24.77;7.38;;;;;;;5.91;86.22;100136.31;10378041;28;20549;-73
2023/03/24 01:16:05;;;;;;;27.65;7.50;;;;;;;6.26;86.18;100205.25;10376732;28;20053;-73
2023/03/24 01:21:07;;;;;;;23.80;7.63;;;;;;;5.46;86.24;100125.59;10377698;28;20409;-74
2023/03/24 01:26:09;;;;;;;21.15;7.57;;;;;;;6.03;87.48;100231.09;10376771;28;20050;-74
2023/03/24 01:31:11;;;;;;;23.65;7.63;;;;;;;4.50;87.35;100009.63;10377216;28;20060;-73
2023/03/24 01:36:11;;;;;;;20.63;7.05;;;;;;;5.15;87.03;100124.91;10376306;28;20401;-74
2023/03/24 01:41:12;;;;;;;27.40;8.18;;;;;;;5.07;87.64;100127.41;10376399;28;20049;-74
2023/03/24 01:46:17;;;;;;;19.73;6.70;;;;;;;5.91;88.62;100257.59;10376117;28;20050;-74
2023/03/24 01:51:21;;;;;;;20.45;6.30;;;;;;;5.93;89.14;100257.50;10375104;28;20092;-74
2023/03/24 01:56:23;;;;;;;24.40;6.65;;;;;;;5.66;88.71;100232.63;10376244;28;20057;-73
2023/03/24 02:01:28;;;;;;;22.75;7.25;;;;;;;5.05;88.85;100145.94;10375197;28;20037;-74
2023/03/24 02:06:34;;;;;;;20.65;6.75;;;;;;;5.55;89.21;100245.94;10375071;28;20137;-73
2023/03/24 02:11:36;;;;;;;21.23;6.40;;;;;;;4.91;88.48;100143.75;10374713;28;20061;-74
2023/03/24 02:17:07;;;;;;;27.77;6.97;;;;;;;5.71;88.23;100275.22;10374990;28;20052;-73
2023/03/24 02:22:45;;;;;;;20.38;7.40;;;;;;;5.68;90.52;100264.97;10365420;28;20100;-75
2023/03/24 02:28:09;;;;;;;21.83;7.28;;;;;;;5.41;90.42;100231.38;10373791;28;20048;-74
2023/03/24 02:33:13;;;;;;;;;;;;;;;5.84;91.85;100282.03;10389976;28;20050;-74
2023/03/24 02:38:16;;;;;;;27.63;6.90;;;;;;;5.23;88.28;100211.94;10372216;28;19924;-74
2023/03/24 02:43:24;;;;;;;19.77;6.57;;;;;;;5.16;89.38;100202.94;10373349;28;20065;-75
2023/03/24 02:48:33;;;;;;;18.08;6.28;;;;;;;5.15;90.47;100210.00;10373294;28;20048;-75
2023/03/24 02:53:49;;;;;;;31.42;7.55;;;;;;;5.55;88.57;100306.56;10373463;28;20501;-75
2023/03/24 02:59:00;;;;;;;20.27;5.85;;;;;;;5.20;88.51;100276.25;10372401;28;20053;-75
2023/03/24 03:04:06;;;;;;;90.03;28.58;;;;;;;4.68;89.15;100217.63;10373754;28;20044;-75
2023/03/24 03:09:11;;;;;;;49.80;18.45;;;;;;;4.70;89.17;100239.41;10372160;28;20144;-75
2023/03/24 03:14:18;;;;;;;54.25;16.65;;;;;;;4.60;88.68;100229.78;10371403;28;20038;-75
2023/03/24 03:20:04;;;;;;;45.70;13.80;;;;;;;4.66;89.99;100245.03;10371624;28;20054;-74
2023/03/24 03:25:06;;;;;;;65.88;24.60;;;;;;;4.98;88.06;100316.78;10371812;28;20037;-75
2023/03/24 03:30:15;;;;;;;52.08;17.17;;;;;;;5.37;88.37;100309.00;10371768;28;20121;-74
2023/03/24 03:35:26;;;;;;;43.28;13.52;;;;;;;5.31;87.77;100225.25;10374911;28;20502;-74
2023/03/24 03:40:31;;;;;;;32.35;11.63;;;;;;;5.87;87.26;100300.19;10381451;28;20040;-76
2023/03/24 03:45:33;;;;;;;34.20;11.52;;;;;;;6.38;87.16;100334.22;10391119;28;20130;-75
2023/03/24 03:50:37;;;;;;;33.65;10.68;;;;;;;6.09;85.75;100239.28;10386956;28;20053;-78
2023/03/24 03:55:37;;;;;;;86.40;28.13;;;;;;;6.41;85.23;100256.56;10380040;28;20080;-76
2023/03/24 04:00:39;;;;;;;26.90;9.85;;;;;;;6.95;85.16;100262.06;10392634;28;20139;-77
2023/03/24 04:06:20;;;;;;;29.35;9.70;;;;;;;7.75;85.24;100327.38;10364489;28;20054;-80
2023/03/24 04:11:50;;;;;;;26.95;10.27;;;;;;;8.48;83.79;100331.66;10391107;28;20053;-78
2023/03/24 04:17:21;;;;;;;46.92;15.32;;;;;;;9.32;82.46;100362.75;10404954;28;20092;-75
2023/03/24 04:23:03;;;;;;;27.58;7.43;;;;;;;9.89;81.25;100370.06;10387983;28;20057;-78
2023/03/24 04:28:11;;;;;;;27.83;7.68;;;;;;;9.89;80.96;100356.78;10400906;28;20084;-80
2023/03/24 04:33:27;;;;;;;22.30;6.10;;;;;;;9.84;81.17;100351.13;10409217;28;20045;-80
2023/03/24 04:38:32;;;;;;;27.30;6.88;;;;;;;8.89;81.81;100183.56;10409384;28;20047;-79
2023/03/24 04:43:35;;;;;;;;;;;;;;;10.62;80.97;100364.00;10386448;28;20041;-80
2023/03/24 04:48:36;;;;;;;29.30;7.07;;;;;;;9.99;80.17;100312.38;10382589;28;19922;-80
2023/03/24 04:53:36;;;;;;;27.70;7.47;;;;;;;9.37;80.05;100222.59;10378921;28;20042;-81
2023/03/24 04:58:37;;;;;;;25.80;7.78;;;;;;;9.52;79.89;100249.31;10380612;28;20487;-81
2023/03/24 05:03:38;;;;;;;33.47;8.05;;;;;;;9.59;79.62;100260.91;10374567;28;20112;-81
2023/03/24 05:08:40;;;;;;;27.02;8.13;;;;;;;10.34;79.94;100374.13;10377256;28;20048;-80
2023/03/24 05:13:41;;;;;;;26.60;6.95;;;;;;;9.91;79.60;100266.44;10377732;28;20576;-78
2023/03/24 05:18:41;;;;;;;30.75;6.72;;;;;;;10.28;79.25;100319.03;10377130;28;20144;-77
2023/03/24 05:23:42;;;;;;;24.13;6.65;;;;;;;10.18;78.49;100286.50;10375036;28;20041;-78
2023/03/24 05:28:43;;;;;;;33.95;10.45;;;;;;;10.97;78.22;100377.88;10376777;28;20053;-78
2023/03/24 05:33:44;;;;;;;25.40;10.38;;;;;;;10.84;77.61;100296.03;10376786;28;20501;-78
2023/03/24 05:38:45;;;;;;;26.63;7.68;;;;;;;10.59;76.56;100193.47;10375734;28;20052;-78
2023/03/24 05:43:46;;;;;;;29.45;7.68;;;;;;;11.00;75.98;100214.56;10371866;28;20571;-78
2023/03/24 05:48:47;;;;;;;32.95;8.18;;;;;;;12.05;75.84;100390.56;10370771;28;20524;-78
2023/03/24 05:53:47;;;;;;;33.35;8.30;;;;;;;12.32;75.02;100379.41;10371333;28;20578;-79
2023/03/24 05:58:50;;;;;;;27.92;8.68;;;;;;;11.42;74.28;100201.69;10374154;28;20046;-79
2023/03/24 06:03:51;;;;;;;27.45;9.57;;;;;;;12.23;73.84;100265.94;10375398;28;20048;-78
2023/03/24 06:08:53;;;;;;;25.58;6.78;;;;;;;13.44;72.89;100400.00;10375180;28;20061;-79
2023/03/24 06:13:58;;;;;;;41.55;8.43;;;;;;;13.64;72.04;100400.25;10375110;28;20521;-79
2023/03/24 06:18:59;;;;;;;26.25;6.80;;;;;;;13.15;71.46;100310.94;10374999;28;20061;-78
2023/03/24 06:24:00;;;;;;;29.30;8.10;;;;;;;13.91;70.65;100364.03;10374829;28;20033;-79
2023/03/24 06:29:01;;;;;;;27.85;7.65;;;;;;;14.23;69.75;100389.41;10375262;28;20068;-79
2023/03/24 06:34:03;;;;;;;27.88;6.82;;;;;;;13.96;69.01;100269.97;10374181;28;20518;-79
2023/03/24 06:39:04;;;;;;;16.50;5.65;;;;;;;15.01;67.22;100368.88;10373664;28;20038;-78
2023/03/24 06:44:05;;;;;;;25.17;6.85;;;;;;;15.11;65.83;100348.97;10373536;28;20072;-78
2023/03/24 06:49:06;;;;;;;32.22;7.53;;;;;;;14.98;64.27;100290.84;10374157;28;20068;-78
2023/03/24 06:54:07;;;;;;;18.08;5.85;;;;;;;16.01;63.47;100379.22;10373201;28;20100;-78
2023/03/24 06:59:08;;;;;;;28.05;7.85;;;;;;;15.89;62.53;100304.81;10373509;28;20046;-78
2023/03/24 07:44:00;;;;;;;17.88;5.95;;;;;;;17.56;53.70;100283.88;10482622;28;20416;-79
2023/03/24 07:49:01;;;;;;;31.90;6.22;;;;;;;17.78;53.05;100260.22;10483147;28;20876;-78
2023/03/24 07:54:02;;;;;;;17.85;5.45;;;;;;;18.50;52.79;100344.03;10482449;28;20124;-79
2023/03/24 07:59:03;;;;;;;20.85;5.25;;;;;;;17.40;52.68;100142.88;10483013;28;20128;-79
2023/03/24 08:04:05;;;;;;;22.60;5.45;;;;;;;18.09;52.40;100243.22;10482064;28;20052;-78
2023/03/24 08:09:06;;;;;;;23.38;4.57;;;;;;;18.47;50.79;100315.69;10482405;28;20047;-79
2023/03/24 08:14:06;;;;;;;18.67;4.80;;;;;;;18.53;49.80;100288.97;10481659;28;20495;-80
2023/03/24 08:19:07;;;;;;;17.33;4.28;;;;;;;18.62;48.60;100213.13;10482232;28;20063;-78
2023/03/24 08:24:08;;;;;;;16.48;4.10;;;;;;;18.17;48.03;100124.66;10481347;28;20085;-78
2023/03/24 08:29:09;;;;;;;11.93;4.22;;;;;;;19.07;47.77;100287.38;10481233;28;20384;-78
2023/03/24 08:34:10;;;;;;;16.67;4.97;;;;;;;19.20;46.90;100237.91;10480876;28;20041;-79
2023/03/24 08:39:11;;;;;;;16.80;5.07;;;;;;;19.39;47.62;100202.66;10480976;28;20131;-80
2023/03/24 08:44:12;;;;;;;20.25;4.85;;;;;;;19.89;47.44;100268.06;10457196;28;20158;-79
2023/03/24 08:49:13;;;;;;;22.08;5.70;;;;;;;19.94;48.13;100284.38;10454020;28;20037;-80
2023/03/24 08:54:13;;;;;;;12.75;5.40;;;;;;;19.93;47.77;100262.00;10453089;28;20128;-80
2023/03/24 08:59:14;;;;;;;19.77;4.90;;;;;;;20.11;47.23;100246.78;10452471;28;20511;-81
2023/03/24 09:04:15;;;;;;;24.25;6.80;;;;;;;20.31;47.20;100255.31;10453593;28;20033;-79
2023/03/24 09:09:16;;;;;;;40.55;16.80;;;;;;;20.38;46.05;100242.56;10452742;28;20170;-80
2023/03/24 09:14:16;;;;;;;15.88;5.63;;;;;;;19.77;44.63;100149.44;10452494;28;20095;-79
2023/03/24 09:19:18;;;;;;;16.92;4.40;;;;;;;20.27;44.13;100197.50;10451675;28;20412;-81
2023/03/24 09:24:18;;;;;;;9.98;2.90;;;;;;;19.78;39.31;100091.81;10452133;28;20029;-80
2023/03/24 09:57:40;;;;;;;9.13;2.72;;;;;;;21.45;32.34;100246.72;10482569;28;20419;-80
2023/03/24 10:02:40;;;;;;;12.00;2.72;;;;;;;21.38;32.67;100219.81;10482535;27;20045;-81
2023/03/24 10:08:16;;;;;;;10.80;2.35;;;;;;;21.51;32.25;100182.75;10482797;28;20136;-80
2023/03/24 10:13:35;;;;;;;7.45;2.35;;;;;;;21.01;31.73;100148.34;10481987;28;20400;-80
2023/03/24 10:18:45;;;;;;;11.48;2.67;;;;;;;21.40;32.86;100208.78;10482521;28;20487;-78
2023/03/24 10:23:59;;;;;;;7.38;2.45;;;;;;;21.03;32.26;100109.22;10482832;28;20427;-79
2023/03/24 10:29:24;;;;;;;10.30;2.63;;;;;;;22.24;32.55;100198.00;10482798;28;20089;-79
2023/03/24 10:34:29;;;;;;;8.77;3.33;;;;;;;21.99;32.00;100140.81;10481758;28;20430;-80
2023/03/24 10:39:31;;;;;;;10.57;3.22;;;;;;;22.15;31.08;100187.84;10481682;28;20044;-77
2023/03/24 10:44:35;;;;;;;7.15;3.40;;;;;;;21.64;30.46;100139.19;10481561;28;20399;-78
2023/03/24 10:49:36;;;;;;;8.57;3.60;;;;;;;21.05;31.23;100080.06;10480909;28;20127;-79
2023/03/24 10:54:53;;;;;;;7.25;2.38;;;;;;;20.84;32.35;100073.50;10474767;28;20155;-78
2023/03/24 10:59:58;;;;;;;6.03;3.03;;;;;;;21.42;32.76;100191.28;10453164;28;20530;-79
2023/03/24 11:05:11;;;;;;;10.27;2.80;;;;;;;20.91;32.61;100143.53;10453562;28;20037;-79
2023/03/24 11:10:15;;;;;;;6.07;2.40;;;;;;;21.28;33.27;100194.47;10453096;28;20041;-79
2023/03/24 11:15:20;;;;;;;11.82;3.25;;;;;;;21.39;32.80;100199.88;10452255;28;20045;-79
2023/03/24 11:20:36;;;;;;;18.25;6.72;;;;;;;20.77;33.66;100097.13;10451172;28;20093;-75
2023/03/24 11:25:40;;;;;;;8.35;2.70;;;;;;;20.68;33.24;100125.56;10452420;28;20154;-82
2023/03/24 11:30:52;;;;;;;13.30;2.92;;;;;;;21.39;32.68;100199.88;10553699;28;20048;-78
2023/03/24 11:35:52;;;;;;;8.65;2.47;;;;;;;21.35;33.26;100173.53;10557443;28;20055;-79
2023/03/24 11:41:01;;;;;;;12.55;3.08;;;;;;;21.38;33.68;100219.81;10548825;28;20047;-82
2023/03/24 11:46:15;;;;;;;8.23;2.55;;;;;;;20.56;33.52;100119.38;10569644;28;20076;-83
2023/03/24 11:51:34;;;;;;;7.75;2.67;;;;;;;20.85;33.47;100210.16;10541607;28;20051;-75
2023/03/24 11:56:47;;;;;;;8.77;2.55;;;;;;;20.71;33.64;100203.38;10563374;28;20055;-76
2023/03/24 12:01:54;;;;;;;8.32;2.65;;;;;;;20.40;33.63;100174.84;10544590;28;20075;-74
2023/03/24 12:07:27;;;;;;;10.98;3.22;;;;;;;20.64;34.58;100208.91;10580838;28;20039;-76
2023/03/24 12:12:51;;;;;;;7.85;2.65;;;;;;;20.08;34.41;100137.50;10581997;28;20039;-76
2023/03/24 12:18:13;;;;;;;8.27;2.60;;;;;;;20.15;34.77;100154.38;10567196;28;20073;-76
2023/03/24 12:23:22;;;;;;;10.25;2.42;;;;;;;20.59;34.83;100218.75;10581749;28;20035;-77
2023/03/24 12:28:32;;;;;;;9.50;2.80;;;;;;;20.47;35.11;100197.16;10582639;28;20071;-76
2023/03/24 12:33:40;;;;;;;8.20;3.13;;;;;;;19.39;35.93;100054.50;10558708;28;20046;-76
2023/03/24 12:39:06;;;;;;;7.32;2.78;;;;;;;20.30;36.88;100213.22;10573897;28;20044;-76
2023/03/24 12:44:16;;;;;;;10.52;3.05;;;;;;;19.84;37.00;100134.00;10562941;28;20051;-75
2023/03/24 12:49:26;;;;;;;7.43;2.75;;;;;;;20.26;36.80;100223.69;10574013;28;20134;-75
2023/03/24 12:54:40;;;;;;;10.38;2.83;;;;;;;20.21;36.37;100222.72;10580553;28;20100;-75
2023/03/24 13:00:14;;;;;;;17.02;3.13;;;;;;;19.41;36.72;100108.13;10543074;28;20044;-75
2023/03/24 13:05:20;;;;;;;14.30;2.97;;;;;;;19.96;37.27;100218.38;10531554;28;20060;-76
2023/03/24 13:10:25;;;;;;;13.48;5.20;;;;;;;18.70;37.50;100072.91;10554720;28;20040;-76
2023/03/24 13:15:32;;;;;;;15.10;6.78;;;;;;;19.28;38.15;100181.06;10558664;28;20043;-76
2023/03/24 13:20:41;;;;;;;41.58;26.50;;;;;;;18.68;43.09;100134.19;10554114;28;20039;-77
2023/03/24 13:25:52;;;;;;;27.77;13.32;;;;;;;19.05;45.38;100239.13;10559707;28;20035;-75
2023/03/24 13:30:54;;;;;;;19.05;10.27;;;;;;;18.75;45.69;100249.84;10553371;28;20043;-76
2023/03/24 13:36:15;;;;;;;34.78;18.38;;;;;;;18.66;46.67;100245.78;10555040;28;20084;-75
2023/03/24 13:41:22;;;;;;;16.80;7.43;;;;;;;18.47;46.88;100243.06;10585632;27;20044;-78
2023/03/24 13:46:24;;;;;;;28.20;10.30;;;;;;;18.21;47.00;100213.75;10579611;28;20049;-77
2023/03/24 13:51:32;;;;;;;30.90;12.70;;;;;;;18.37;47.94;100255.41;10580424;28;20081;-77
2023/03/24 13:56:36;;;;;;;23.88;10.45;;;;;;;18.28;48.02;100254.00;10578895;28;20456;-77
2023/03/24 14:01:42;;;;;;;;;;;;;;;18.33;46.99;100257.69;10572412;28;20044;-75
2023/03/24 14:06:45;;;;;;;13.57;4.45;;;;;;;18.12;48.35;100258.91;10576883;28;20252;-78
2023/03/24 14:12:07;;;;;;;17.20;4.45;;;;;;;17.60;49.20;100177.63;10568650;28;20040;-75
2023/03/24 14:17:07;;;;;;;19.85;6.80;;;;;;;18.01;49.36;100263.13;10557110;28;20042;-75
2023/03/24 14:22:26;;;;;;;12.05;4.93;;;;;;;17.95;50.61;100263.19;10577978;28;20126;-77
2023/03/24 14:28:16;;;;;;;18.10;5.53;;;;;;;17.91;51.10;100267.34;10570227;28;20117;-80
2023/03/24 14:33:24;;;;;;;17.92;7.38;;;;;;;17.61;51.50;100245.59;10539050;28;20051;-80
2023/03/24 14:38:26;;;;;;;18.58;8.43;;;;;;;17.24;51.17;100195.22;10567817;28;20038;-79
2023/03/24 14:43:36;;;;;;;20.02;7.10;;;;;;;17.64;51.42;100283.59;10568269;28;20135;-77
2023/03/24 14:48:42;;;;;;;19.35;5.93;;;;;;;17.58;51.86;100287.16;10558899;28;20047;-77
2023/03/24 14:53:44;;;;;;;15.68;6.28;;;;;;;17.38;52.13;100262.25;10567712;28;20051;-79
2023/03/24 14:58:49;;;;;;;13.88;5.65;;;;;;;17.37;52.78;100271.38;10524507;28;20145;-88
2023/03/24 15:04:10;;;;;;;11.63;5.57;;;;;;;17.34;53.46;100294.91;10543812;28;20499;-89
2023/03/24 15:09:10;;;;;;;20.88;5.90;;;;;;;16.81;53.64;100236.09;10541661;28;20143;-89
2023/03/24 15:14:20;;;;;;;18.02;5.50;;;;;;;17.04;55.20;100312.59;10543456;28;20123;-89
2023/03/24 15:19:24;;;;;;;15.82;6.18;;;;;;;16.83;55.15;100297.56;10545884;28;20094;-91
2023/03/24 15:24:32;;;;;;;15.75;6.22;;;;;;;16.76;56.64;100310.19;10540586;28;20043;-85
2023/03/24 15:29:39;;;;;;;22.48;6.20;;;;;;;16.64;57.47;100316.16;10518197;28;20086;-79
2023/03/24 15:34:41;;;;;;;15.32;6.20;;;;;;;16.20;56.98;100260.50;10522223;28;20085;-88
2023/03/24 15:39:51;;;;;;;19.60;6.72;;;;;;;16.27;58.31;100293.47;10524437;28;20411;-80
2023/03/24 15:44:53;;;;;;;11.50;6.07;;;;;;;16.09;58.16;100271.81;10518609;28;20043;-90
2023/03/24 15:49:59;;;;;;;15.20;7.05;;;;;;;15.48;59.21;100185.22;10531167;28;20122;-86
2023/03/24 15:55:23;;;;;;;12.32;6.63;;;;;;;16.34;59.60;100331.03;10523943;28;20451;-83
2023/03/24 16:00:34;;;;;;;14.20;6.82;;;;;;;16.25;59.79;100333.09;10531853;28;20032;-81
2023/03/24 16:05:35;;;;;;;15.60;6.45;;;;;;;15.70;59.43;100268.06;10585743;28;20048;-91
2023/03/24 16:10:41;;;;;;;16.90;6.55;;;;;;;16.03;59.75;100353.03;10587089;28;20039;-88
2023/03/24 16:16:05;;;;;;;11.70;5.80;;;;;;;15.91;61.73;100348.28;10568413;28;20052;-84
2023/03/24 16:21:13;;;;;;;19.65;6.40;;;;;;;15.68;62.31;100339.78;10552260;28;20058;-84
2023/03/24 16:26:15;;;;;;;16.38;6.38;;;;;;;15.58;61.96;100356.19;10565267;28;20414;-90
2023/03/24 16:31:20;;;;;;;17.75;7.00;;;;;;;15.00;63.00;100305.69;10557157;28;20036;-80
2023/03/24 16:36:22;;;;;;;12.63;6.93;;;;;;;15.22;62.94;100361.78;10571217;28;20143;-82
2023/03/24 16:41:23;;;;;;;19.33;6.95;;;;;;;15.06;63.55;100371.78;10581120;28;20036;-87
2023/03/24 16:46:27;;;;;;;17.58;7.60;;;;;;;14.87;65.12;100380.53;10565207;28;20104;-82
2023/03/24 16:51:28;;;;;;;15.80;7.25;;;;;;;13.08;64.38;100123.34;10559142;28;20044;-83
2023/03/24 16:56:30;;;;;;;13.25;7.30;;;;;;;14.55;65.36;100376.56;10548292;28;20051;-83
2023/03/24 17:01:37;;;;;;;16.42;7.82;;;;;;;14.42;67.27;100393.28;10559031;28;20079;-88
2023/03/24 17:06:45;;;;;;;12.50;7.18;;;;;;;14.17;67.51;100382.13;10559433;28;20036;-81
2023/03/24 17:11:55;;;;;;;14.95;7.50;;;;;;;13.95;69.02;100370.63;10572403;28;20051;-77
2023/03/24 17:16:56;;;;;;;14.45;8.00;;;;;;;13.90;67.61;100381.88;10560342;28;20048;-80
2023/03/24 17:22:01;;;;;;;15.18;8.65;;;;;;;13.49;68.35;100333.56;10550730;28;20048;-81
2023/03/24 17:27:02;;;;;;;17.35;8.20;;;;;;;13.74;68.48;100406.13;10552624;28;20093;-79
2023/03/24 17:32:03;;;;;;;16.65;7.82;;;;;;;12.86;69.07;100271.78;10551068;28;20040;-78
2023/03/24 17:37:05;;;;;;;16.42;8.48;;;;;;;13.00;69.02;100318.13;10565350;28;20660;-78
2023/03/24 17:42:05;;;;;;;15.10;9.07;;;;;;;13.60;69.47;100415.81;10579039;28;20039;-78
2023/03/24 17:47:07;;;;;;;13.68;8.93;;;;;;;12.84;69.69;100307.66;10579849;28;20138;-80
2023/03/24 17:52:08;;;;;;;17.42;8.85;;;;;;;12.82;70.48;100336.31;10561128;28;20052;-80
2023/03/24 17:57:08;;;;;;;15.38;8.88;;;;;;;12.15;70.89;100247.38;10540764;28;20085;-74
2023/03/24 18:02:12;;;;;;;16.60;8.38;;;;;;;12.89;72.46;100398.56;10536243;28;20040;-74
2023/03/24 18:07:13;;;;;;;12.52;7.65;;;;;;;12.41;71.86;100342.84;10542361;28;20040;-76
2023/03/24 18:12:13;;;;;;;18.05;8.45;;;;;;;12.78;73.02;100421.16;10499359;28;20052;-78
2023/03/24 18:17:15;;;;;;;12.80;8.35;;;;;;;12.58;73.36;100412.84;10544344;28;20526;-77
2023/03/24 18:22:16;;;;;;;13.68;8.55;;;;;;;12.34;74.07;100406.69;10526868;28;20071;-77
2023/03/24 18:27:17;;;;;;;12.30;8.05;;;;;;;12.46;74.37;100438.25;10529288;28;20037;-77
2023/03/24 18:32:17;;;;;;;13.65;7.97;;;;;;;12.37;74.12;100447.31;10516120;28;20041;-75
2023/03/24 18:37:18;;;;;;;11.63;7.05;;;;;;;12.25;74.61;100447.72;10516874;28;20040;-76
2023/03/24 18:42:19;;;;;;;10.98;6.45;;;;;;;11.56;74.36;100364.22;10512108;28;20085;-78
2023/03/24 18:47:21;;;;;;;15.32;8.82;;;;;;;11.91;74.88;100428.63;10511838;28;20048;-75
2023/03/24 18:52:22;;;;;;;11.02;7.13;;;;;;;11.94;74.80;100453.06;10521156;28;20041;-77
2023/03/24 18:57:23;;;;;;;13.73;7.20;;;;;;;11.54;75.18;100400.81;10519953;28;20060;-76
2023/03/24 19:02:23;;;;;;;13.75;6.78;;;;;;;11.50;75.39;100421.59;10512057;28;20131;-77
2023/03/24 19:07:25;;;;;;;12.45;7.25;;;;;;;11.12;75.26;100378.84;10509097;28;20491;-77
2023/03/24 19:12:26;;;;;;;11.43;6.80;;;;;;;11.45;76.00;100447.06;10518131;28;20043;-77
2023/03/24 19:17:27;;;;;;;9.70;6.18;;;;;;;11.01;76.60;100383.69;10512537;28;20048;-78
2023/03/24 19:22:28;;;;;;;10.23;6.43;;;;;;;11.46;76.34;100449.56;10515553;28;20067;-76
2023/03/24 19:27:28;;;;;;;11.18;6.63;;;;;;;10.95;76.74;100386.03;10499244;28;20040;-76
2023/03/24 19:32:30;;;;;;;39.50;13.02;;;;;;;11.27;76.96;100468.53;10500319;28;20419;-76
2023/03/24 19:37:31;;;;;;;27.42;12.43;;;;;;;10.32;77.50;100336.31;10500021;28;20056;-76
2023/03/24 19:42:32;;;;;;;16.52;7.88;;;;;;;11.07;77.96;100466.28;10506190;28;20044;-76
2023/03/24 19:47:33;;;;;;;11.75;6.57;;;;;;;10.65;78.26;100406.19;10508508;28;20618;-76
2023/03/24 19:52:35;;;;;;;8.18;5.70;;;;;;;9.92;79.40;100287.47;10540105;28;20040;-77
2023/03/24 19:57:36;;;;;;;8.70;5.88;;;;;;;10.36;79.56;100358.88;10540686;28;20122;-76
2023/03/24 20:02:37;;;;;;;8.63;5.53;;;;;;;10.60;79.29;100403.19;10510894;28;20135;-76
2023/03/24 20:07:37;;;;;;;20.27;10.00;;;;;;;10.19;79.12;100341.25;10498205;28;20601;-77
2023/03/24 20:12:38;;;;;;;15.32;8.43;;;;;;;10.65;78.97;100456.66;10512977;28;20052;-77
2023/03/24 20:17:39;;;;;;;12.25;7.43;;;;;;;10.19;79.42;100421.69;10498665;28;20035;-76
2023/03/24 20:22:44;;;;;;;15.60;7.22;;;;;;;9.78;79.86;100376.53;10497463;28;20493;-76
2023/03/24 20:27:46;;;;;;;14.13;8.35;;;;;;;10.00;80.48;100429.97;10514265;28;20442;-77
2023/03/24 20:32:47;;;;;;;21.35;9.85;;;;;;;10.00;81.09;100464.47;10534742;28;20048;-77
2023/03/24 20:37:48;;;;;;;11.88;6.70;;;;;;;9.99;80.85;100489.31;10529989;28;20036;-77
2023/03/24 20:42:49;;;;;;;14.88;7.88;;;;;;;9.88;80.85;100500.25;10510415;28;20050;-77
2023/03/24 20:47:50;;;;;;;14.55;6.80;;;;;;;9.85;80.53;100489.97;10496303;28;20155;-76
2023/03/24 20:52:51;;;;;;;12.90;7.13;;;;;;;9.19;80.61;100402.13;10517438;28;20055;-76
2023/03/24 20:57:52;;;;;;;11.18;7.30;;;;;;;9.68;81.14;100489.03;10537773;28;20039;-77
2023/03/24 21:02:53;;;;;;;17.10;7.40;;;;;;;9.07;81.90;100429.91;10537800;28;20075;-76
2023/03/24 21:07:54;;;;;;;11.32;7.22;;;;;;;9.18;81.75;100450.00;10535815;28;20032;-76
2023/03/24 21:12:55;;;;;;;16.10;8.27;;;;;;;8.51;81.56;100391.41;10537953;28;20059;-76
2023/03/24 21:17:56;;;;;;;13.30;6.95;;;;;;;8.65;81.43;100439.38;10538336;28;20435;-78
2023/03/24 21:22:56;;;;;;;14.88;7.82;;;;;;;6.81;82.12;100163.88;10538369;28;20058;-77
2023/03/24 21:27:58;;;;;;;13.55;8.05;;;;;;;8.91;83.21;100505.63;10536748;28;20042;-77
2023/03/24 21:32:59;;;;;;;12.82;8.18;;;;;;;8.10;83.37;100394.47;10537421;28;20039;-77
2023/03/24 21:38:00;;;;;;;13.10;7.03;;;;;;;7.79;83.34;100338.47;10538041;28;20040;-77
2023/03/24 21:43:04;;;;;;;14.18;8.02;;;;;;;8.30;82.51;100436.69;10537386;28;20048;-77
2023/03/24 21:48:06;;;;;;;12.90;7.15;;;;;;;8.52;82.51;100507.75;10535891;28;20046;-77
2023/03/24 21:53:13;;;;;;;11.05;7.03;;;;;;;7.89;82.61;100465.34;10536269;28;20059;-78
2023/03/24 21:58:14;;;;;;;13.25;8.30;;;;;;;7.44;83.09;100387.66;10536120;28;20051;-77
2023/03/24 22:03:16;;;;;;;14.40;7.60;;;;;;;8.10;84.07;100499.50;10536839;28;20054;-78
2023/03/24 22:08:21;;;;;;;13.98;7.18;;;;;;;7.51;83.83;100406.44;10536990;28;20070;-78
2023/03/24 22:13:22;;;;;;;11.50;7.55;;;;;;;7.77;83.84;100439.09;10536179;28;20052;-78
2023/03/24 22:18:25;;;;;;;11.50;8.00;;;;;;;8.38;84.64;100508.25;10536302;28;20040;-77
2023/03/24 22:23:31;;;;;;;11.13;7.25;;;;;;;8.43;84.97;100500.69;10536062;28;20423;-77
2023/03/24 22:28:34;;;;;;;9.95;7.07;;;;;;;8.18;86.26;100471.31;10536312;28;20093;-77
2023/03/24 22:33:35;;;;;;;9.23;6.85;;;;;;;8.33;86.19;100508.69;10536412;28;20043;-79
2023/03/24 22:38:36;;;;;;;12.43;6.38;;;;;;;7.93;85.43;100470.22;10535982;28;20043;-78
2023/03/24 22:43:40;;;;;;;9.57;6.93;;;;;;;7.90;85.44;100467.03;10535269;28;20040;-78
2023/03/24 22:48:41;;;;;;;14.10;7.30;;;;;;;7.67;85.88;100429.56;10535940;28;20055;-78
2023/03/24 22:53:42;;;;;;;9.30;6.80;;;;;;;7.86;86.22;100455.06;10541601;28;20503;-78
2023/03/24 22:58:43;;;;;;;9.52;6.65;;;;;;;7.25;85.64;100388.59;10543258;28;20040;-78
2023/03/24 23:03:43;;;;;;;10.50;7.00;;;;;;;7.19;85.64;100399.72;10543544;28;20483;-78
2023/03/24 23:08:44;;;;;;;17.10;7.63;;;;;;;7.69;86.01;100483.16;10542422;28;20134;-78
2023/03/24 23:13:49;;;;;;;14.95;7.72;;;;;;;7.42;86.27;100446.91;10542524;28;20044;-78
2023/03/24 23:18:50;;;;;;;16.42;7.57;;;;;;;7.08;85.94;100424.50;10542648;28;20596;-78
2023/03/24 23:23:51;;;;;;;14.25;8.23;;;;;;;6.29;85.56;100335.06;10542545;28;20527;-78
2023/03/24 23:28:52;;;;;;;16.75;9.07;;;;;;;7.21;86.09;100505.25;10541106;28;20126;-78
2023/03/24 23:33:57;;;;;;;13.27;7.97;;;;;;;6.94;87.49;100463.72;10541435;28;20537;-78
2023/03/24 23:38:57;;;;;;;11.90;7.30;;;;;;;6.72;86.33;100438.47;10541683;28;20062;-78
2023/03/24 23:43:58;;;;;;;11.32;7.72;;;;;;;6.97;85.79;100511.84;10540915;28;20050;-78
2023/03/24 23:49:00;;;;;;;11.60;7.97;;;;;;;6.83;86.28;100507.81;10540736;28;20410;-78
2023/03/24 23:54:00;;;;;;;13.27;8.60;;;;;;;6.54;87.73;100448.91;10540889;28;20056;-79
2023/03/24 23:59:06;;;;;;;17.20;10.75;;;;;;;6.28;89.68;100401.13;10536536;28;20051;-78
